sensor_id;sensor_type;location;lat;lon;timestamp;temperature;humidity
23755;DHT22;12057;52.042;6.830;2023-08-17T00:04:08;20.90;99.90
23755;DHT22;12057;52.042;6.830;2023-08-17T00:09:09;20.80;99.90
23755;DHT22;12057;52.042;6.830;2023-08-17T00:14:10;20.80;99.90
23755;DHT22;12057;52.042;6.830;2023-08-17T00:19:11;20.70;99.90
23755;DHT22;12057;52.042;6.830;2023-08-17T00:24:12;20.80;99.90
23755;DHT22;12057;52.042;6.830;2023-08-17T00:29:12;20.70;99.90
23755;DHT22;12057;52.042;6.830;2023-08-17T00:34:15;20.50;99.90
23755;DHT22;12057;52.042;6.830;2023-08-17T00:39:16;20.70;99.90
23755;DHT22;12057;52.042;6.830;2023-08-17T00:44:17;20.70;99.90
23755;DHT22;12057;52.042;6.830;2023-08-17T00:49:17;20.60;99.90
23755;DHT22;12057;52.042;6.830;2023-08-17T00:54:23;20.60;99.90
23755;DHT22;12057;52.042;6.830;2023-08-17T00:59:24;20.60;99.90
23755;DHT22;12057;52.042;6.830;2023-08-17T01:04:25;20.60;99.90
23755;DHT22;12057;52.042;6.830;2023-08-17T01:09:26;20.40;99.90
23755;DHT22;12057;52.042;6.830;2023-08-17T01:14:37;20.50;99.90
23755;DHT22;12057;52.042;6.830;2023-08-17T01:19:40;20.50;99.90
23755;DHT22;12057;52.042;6.830;2023-08-17T01:24:45;20.40;99.90
23755;DHT22;12057;52.042;6.830;2023-08-17T01:29:48;20.40;99.90
23755;DHT22;12057;52.042;6.830;2023-08-17T01:34:56;20.40;99.90
23755;DHT22;12057;52.042;6.830;2023-08-17T01:39:58;20.50;99.90
23755;DHT22;12057;52.042;6.830;2023-08-17T01:44:59;20.50;99.90
23755;DHT22;12057;52.042;6.830;2023-08-17T01:50:00;20.60;99.90
23755;DHT22;12057;52.042;6.830;2023-08-17T01:55:01;20.80;99.90
23755;DHT22;12057;52.042;6.830;2023-08-17T02:00:06;20.90;99.90
23755;DHT22;12057;52.042;6.830;2023-08-17T02:05:08;20.90;99.90
23755;DHT22;12057;52.042;6.830;2023-08-17T02:10:09;21.00;99.90
23755;DHT22;12057;52.042;6.830;2023-08-17T02:15:10;21.00;99.90
23755;DHT22;12057;52.042;6.830;2023-08-17T02:20:11;21.00;99.90
23755;DHT22;12057;52.042;6.830;2023-08-17T02:25:12;21.10;99.90
23755;DHT22;12057;52.042;6.830;2023-08-17T02:30:13;21.10;99.90
23755;DHT22;12057;52.042;6.830;2023-08-17T02:35:14;20.80;99.90
23755;DHT22;12057;52.042;6.830;2023-08-17T02:40:14;20.50;99.90
23755;DHT22;12057;52.042;6.830;2023-08-17T02:45:15;20.40;99.90
23755;DHT22;12057;52.042;6.830;2023-08-17T02:50:16;20.50;99.90
23755;DHT22;12057;52.042;6.830;2023-08-17T02:55:17;20.30;99.90
23755;DHT22;12057;52.042;6.830;2023-08-17T03:00:18;20.20;99.90
23755;DHT22;12057;52.042;6.830;2023-08-17T03:05:19;20.10;99.90
23755;DHT22;12057;52.042;6.830;2023-08-17T03:10:19;19.80;99.90
23755;DHT22;12057;52.042;6.830;2023-08-17T03:15:20;19.80;99.90
23755;DHT22;12057;52.042;6.830;2023-08-17T03:20:21;19.60;99.90
23755;DHT22;12057;52.042;6.830;2023-08-17T03:25:22;19.60;99.90
23755;DHT22;12057;52.042;6.830;2023-08-17T03:30:22;19.40;99.90
23755;DHT22;12057;52.042;6.830;2023-08-17T03:35:23;19.30;99.90
23755;DHT22;12057;52.042;6.830;2023-08-17T03:40:24;19.20;99.90
23755;DHT22;12057;52.042;6.830;2023-08-17T03:45:25;19.40;99.90
23755;DHT22;12057;52.042;6.830;2023-08-17T03:50:27;19.50;99.90
23755;DHT22;12057;52.042;6.830;2023-08-17T03:55:28;19.50;99.90
23755;DHT22;12057;52.042;6.830;2023-08-17T04:00:29;19.40;99.90
23755;DHT22;12057;52.042;6.830;2023-08-17T04:05:29;19.40;99.90
23755;DHT22;12057;52.042;6.830;2023-08-17T04:10:30;19.40;99.90
23755;DHT22;12057;52.042;6.830;2023-08-17T04:15:31;19.40;99.90
23755;DHT22;12057;52.042;6.830;2023-08-17T04:20:32;19.40;99.90
23755;DHT22;12057;52.042;6.830;2023-08-17T04:25:32;19.20;99.90
23755;DHT22;12057;52.042;6.830;2023-08-17T04:30:34;19.30;99.90
23755;DHT22;12057;52.042;6.830;2023-08-17T04:35:35;19.40;99.90
23755;DHT22;12057;52.042;6.830;2023-08-17T04:40:35;19.30;99.90
23755;DHT22;12057;52.042;6.830;2023-08-17T04:45:36;19.30;99.90
23755;DHT22;12057;52.042;6.830;2023-08-17T04:50:37;19.40;99.90
23755;DHT22;12057;52.042;6.830;2023-08-17T04:55:38;19.30;99.90
23755;DHT22;12057;52.042;6.830;2023-08-17T05:00:39;19.30;99.90
23755;DHT22;12057;52.042;6.830;2023-08-17T05:05:39;19.30;99.90
23755;DHT22;12057;52.042;6.830;2023-08-17T05:10:40;19.40;99.90
23755;DHT22;12057;52.042;6.830;2023-08-17T05:15:41;19.50;99.90
23755;DHT22;12057;52.042;6.830;2023-08-17T05:20:42;19.50;99.90
23755;DHT22;12057;52.042;6.830;2023-08-17T05:25:46;19.50;99.90
23755;DHT22;12057;52.042;6.830;2023-08-17T05:30:48;19.60;99.90
23755;DHT22;12057;52.042;6.830;2023-08-17T05:35:55;19.50;99.90
23755;DHT22;12057;52.042;6.830;2023-08-17T05:40:57;19.40;99.90
23755;DHT22;12057;52.042;6.830;2023-08-17T05:45:58;19.50;99.90
23755;DHT22;12057;52.042;6.830;2023-08-17T05:51:01;19.70;99.90
23755;DHT22;12057;52.042;6.830;2023-08-17T05:56:02;19.70;99.90
23755;DHT22;12057;52.042;6.830;2023-08-17T06:01:07;19.70;99.90
23755;DHT22;12057;52.042;6.830;2023-08-17T06:06:13;19.70;99.90
23755;DHT22;12057;52.042;6.830;2023-08-17T06:11:16;19.70;99.90
23755;DHT22;12057;52.042;6.830;2023-08-17T06:16:16;19.80;99.90
23755;DHT22;12057;52.042;6.830;2023-08-17T06:21:17;19.80;99.90
23755;DHT22;12057;52.042;6.830;2023-08-17T06:26:18;19.90;99.90
23755;DHT22;12057;52.042;6.830;2023-08-17T06:31:19;19.70;99.90
23755;DHT22;12057;52.042;6.830;2023-08-17T06:36:20;20.00;99.90
23755;DHT22;12057;52.042;6.830;2023-08-17T06:41:21;20.40;99.90
23755;DHT22;12057;52.042;6.830;2023-08-17T06:46:21;20.80;99.90
23755;DHT22;12057;52.042;6.830;2023-08-17T06:51:22;20.90;99.90
23755;DHT22;12057;52.042;6.830;2023-08-17T06:56:23;21.10;99.90
23755;DHT22;12057;52.042;6.830;2023-08-17T07:01:24;21.30;99.90
23755;DHT22;12057;52.042;6.830;2023-08-17T07:06:25;21.40;99.90
23755;DHT22;12057;52.042;6.830;2023-08-17T07:11:26;20.70;99.90
23755;DHT22;12057;52.042;6.830;2023-08-17T07:16:26;21.10;99.90
23755;DHT22;12057;52.042;6.830;2023-08-17T07:21:27;20.90;99.90
23755;DHT22;12057;52.042;6.830;2023-08-17T07:26:28;20.90;99.90
23755;DHT22;12057;52.042;6.830;2023-08-17T07:31:29;21.00;99.90
23755;DHT22;12057;52.042;6.830;2023-08-17T07:36:30;20.90;99.90
23755;DHT22;12057;52.042;6.830;2023-08-17T07:41:31;20.80;99.90
23755;DHT22;12057;52.042;6.830;2023-08-17T07:46:32;21.10;99.90
23755;DHT22;12057;52.042;6.830;2023-08-17T07:51:32;21.20;99.90
23755;DHT22;12057;52.042;6.830;2023-08-17T07:56:34;21.00;99.90
23755;DHT22;12057;52.042;6.830;2023-08-17T08:01:35;21.10;99.90
23755;DHT22;12057;52.042;6.830;2023-08-17T08:06:36;21.10;99.90
23755;DHT22;12057;52.042;6.830;2023-08-17T08:11:36;21.20;99.90
23755;DHT22;12057;52.042;6.830;2023-08-17T08:16:37;21.50;99.90
23755;DHT22;12057;52.042;6.830;2023-08-17T08:21:38;21.50;99.90
23755;DHT22;12057;52.042;6.830;2023-08-17T08:26:39;21.70;99.90
23755;DHT22;12057;52.042;6.830;2023-08-17T08:31:40;21.70;99.90
23755;DHT22;12057;52.042;6.830;2023-08-17T08:36:40;21.60;99.90
23755;DHT22;12057;52.042;6.830;2023-08-17T08:41:41;21.30;99.90
23755;DHT22;12057;52.042;6.830;2023-08-17T08:46:44;21.20;99.90
23755;DHT22;12057;52.042;6.830;2023-08-17T08:51:50;21.20;99.90
23755;DHT22;12057;52.042;6.830;2023-08-17T08:56:59;21.60;99.90
23755;DHT22;12057;52.042;6.830;2023-08-17T09:02:00;21.50;99.90
23755;DHT22;12057;52.042;6.830;2023-08-17T09:07:01;21.70;99.90
23755;DHT22;12057;52.042;6.830;2023-08-17T09:12:08;21.80;99.90
23755;DHT22;12057;52.042;6.830;2023-08-17T09:17:12;21.70;99.90
23755;DHT22;12057;52.042;6.830;2023-08-17T09:22:13;21.50;99.90
23755;DHT22;12057;52.042;6.830;2023-08-17T09:27:13;21.80;99.90
23755;DHT22;12057;52.042;6.830;2023-08-17T09:32:14;21.80;99.90
23755;DHT22;12057;52.042;6.830;2023-08-17T09:37:16;21.80;99.90
23755;DHT22;12057;52.042;6.830;2023-08-17T09:42:21;21.30;99.90
23755;DHT22;12057;52.042;6.830;2023-08-17T09:47:23;21.40;99.90
23755;DHT22;12057;52.042;6.830;2023-08-17T09:52:24;21.60;99.90
23755;DHT22;12057;52.042;6.830;2023-08-17T09:57:25;21.80;99.90
23755;DHT22;12057;52.042;6.830;2023-08-17T10:02:28;22.00;99.90
23755;DHT22;12057;52.042;6.830;2023-08-17T10:07:30;21.90;99.90
23755;DHT22;12057;52.042;6.830;2023-08-17T10:12:37;21.60;99.90
23755;DHT22;12057;52.042;6.830;2023-08-17T10:17:58;21.60;99.90
23755;DHT22;12057;52.042;6.830;2023-08-17T10:23:27;21.40;99.90
23755;DHT22;12057;52.042;6.830;2023-08-17T10:28:29;21.60;99.90
23755;DHT22;12057;52.042;6.830;2023-08-17T10:33:31;21.60;99.90
23755;DHT22;12057;52.042;6.830;2023-08-17T10:38:32;21.20;99.90
23755;DHT22;12057;52.042;6.830;2023-08-17T10:43:33;21.10;99.90
23755;DHT22;12057;52.042;6.830;2023-08-17T10:48:35;21.50;99.90
23755;DHT22;12057;52.042;6.830;2023-08-17T10:53:36;21.60;99.90
23755;DHT22;12057;52.042;6.830;2023-08-17T10:58:39;21.60;99.90
23755;DHT22;12057;52.042;6.830;2023-08-17T11:03:42;21.50;99.90
23755;DHT22;12057;52.042;6.830;2023-08-17T11:08:55;21.60;99.90
23755;DHT22;12057;52.042;6.830;2023-08-17T11:13:57;21.70;99.90
23755;DHT22;12057;52.042;6.830;2023-08-17T11:19:00;21.60;99.90
23755;DHT22;12057;52.042;6.830;2023-08-17T11:24:01;21.70;99.90
23755;DHT22;12057;52.042;6.830;2023-08-17T11:29:02;21.60;99.90
23755;DHT22;12057;52.042;6.830;2023-08-17T11:34:03;21.60;99.90
23755;DHT22;12057;52.042;6.830;2023-08-17T11:39:04;21.70;99.90
23755;DHT22;12057;52.042;6.830;2023-08-17T11:44:05;21.80;99.90
23755;DHT22;12057;52.042;6.830;2023-08-17T11:49:06;21.60;99.90
23755;DHT22;12057;52.042;6.830;2023-08-17T11:54:07;21.60;99.90
23755;DHT22;12057;52.042;6.830;2023-08-17T11:59:08;21.60;99.90
23755;DHT22;12057;52.042;6.830;2023-08-17T12:04:11;22.00;99.90
23755;DHT22;12057;52.042;6.830;2023-08-17T12:09:12;22.10;99.90
23755;DHT22;12057;52.042;6.830;2023-08-17T12:14:14;22.40;99.90
23755;DHT22;12057;52.042;6.830;2023-08-17T12:19:15;22.30;99.90
23755;DHT22;12057;52.042;6.830;2023-08-17T12:24:16;22.30;99.90
23755;DHT22;12057;52.042;6.830;2023-08-17T12:29:20;22.30;99.90
23755;DHT22;12057;52.042;6.830;2023-08-17T12:34:20;22.10;99.90
23755;DHT22;12057;52.042;6.830;2023-08-17T12:39:21;22.20;99.90
23755;DHT22;12057;52.042;6.830;2023-08-17T12:44:24;22.30;99.90
23755;DHT22;12057;52.042;6.830;2023-08-17T12:49:25;22.50;99.90
23755;DHT22;12057;52.042;6.830;2023-08-17T12:54:26;22.40;99.90
23755;DHT22;12057;52.042;6.830;2023-08-17T12:59:27;22.40;99.90
23755;DHT22;12057;52.042;6.830;2023-08-17T13:04:28;22.10;99.90
23755;DHT22;12057;52.042;6.830;2023-08-17T13:09:29;22.50;99.90
23755;DHT22;12057;52.042;6.830;2023-08-17T13:14:29;22.40;99.90
23755;DHT22;12057;52.042;6.830;2023-08-17T13:19:30;22.40;99.90
23755;DHT22;12057;52.042;6.830;2023-08-17T13:24:31;22.30;99.90
23755;DHT22;12057;52.042;6.830;2023-08-17T13:29:32;22.30;99.90
23755;DHT22;12057;52.042;6.830;2023-08-17T13:34:32;22.40;99.90
23755;DHT22;12057;52.042;6.830;2023-08-17T13:39:33;22.10;99.90
23755;DHT22;12057;52.042;6.830;2023-08-17T13:44:34;22.30;99.90
23755;DHT22;12057;52.042;6.830;2023-08-17T13:49:35;22.30;99.90
23755;DHT22;12057;52.042;6.830;2023-08-17T13:54:36;22.40;99.90
23755;DHT22;12057;52.042;6.830;2023-08-17T13:59:37;22.60;99.90
23755;DHT22;12057;52.042;6.830;2023-08-17T14:04:37;22.70;99.90
23755;DHT22;12057;52.042;6.830;2023-08-17T14:09:38;22.80;99.90
23755;DHT22;12057;52.042;6.830;2023-08-17T14:14:39;22.80;99.90
23755;DHT22;12057;52.042;6.830;2023-08-17T14:19:40;23.00;99.90
23755;DHT22;12057;52.042;6.830;2023-08-17T14:24:40;22.70;99.90
23755;DHT22;12057;52.042;6.830;2023-08-17T14:29:41;22.50;99.90
23755;DHT22;12057;52.042;6.830;2023-08-17T14:34:42;22.40;99.90
23755;DHT22;12057;52.042;6.830;2023-08-17T14:39:43;22.80;99.90
23755;DHT22;12057;52.042;6.830;2023-08-17T14:44:43;23.00;99.90
23755;DHT22;12057;52.042;6.830;2023-08-17T14:49:44;23.10;99.90
23755;DHT22;12057;52.042;6.830;2023-08-17T14:54:45;23.10;99.90
23755;DHT22;12057;52.042;6.830;2023-08-17T14:59:46;23.00;99.90
23755;DHT22;12057;52.042;6.830;2023-08-17T15:04:47;22.90;99.90
23755;DHT22;12057;52.042;6.830;2023-08-17T15:09:47;22.60;99.90
23755;DHT22;12057;52.042;6.830;2023-08-17T15:14:48;22.60;99.90
23755;DHT22;12057;52.042;6.830;2023-08-17T15:19:49;22.60;99.90
23755;DHT22;12057;52.042;6.830;2023-08-17T15:24:50;22.80;99.90
23755;DHT22;12057;52.042;6.830;2023-08-17T15:29:51;22.90;99.90
23755;DHT22;12057;52.042;6.830;2023-08-17T15:34:52;22.70;99.90
23755;DHT22;12057;52.042;6.830;2023-08-17T15:39:52;23.00;99.90
23755;DHT22;12057;52.042;6.830;2023-08-17T15:44:53;22.70;99.90
23755;DHT22;12057;52.042;6.830;2023-08-17T15:49:54;22.40;99.90
23755;DHT22;12057;52.042;6.830;2023-08-17T15:54:55;22.60;99.90
23755;DHT22;12057;52.042;6.830;2023-08-17T15:59:55;22.20;99.90
23755;DHT22;12057;52.042;6.830;2023-08-17T16:04:56;22.50;99.90
23755;DHT22;12057;52.042;6.830;2023-08-17T16:09:57;22.40;99.90
23755;DHT22;12057;52.042;6.830;2023-08-17T16:14:58;22.40;99.90
23755;DHT22;12057;52.042;6.830;2023-08-17T16:19:58;22.30;99.90
23755;DHT22;12057;52.042;6.830;2023-08-17T16:24:59;22.10;99.90
23755;DHT22;12057;52.042;6.830;2023-08-17T16:30:00;22.20;99.90
23755;DHT22;12057;52.042;6.830;2023-08-17T16:35:01;22.30;99.90
23755;DHT22;12057;52.042;6.830;2023-08-17T16:40:02;22.00;99.90
23755;DHT22;12057;52.042;6.830;2023-08-17T16:45:05;22.10;99.90
23755;DHT22;12057;52.042;6.830;2023-08-17T16:50:07;22.00;99.90
23755;DHT22;12057;52.042;6.830;2023-08-17T16:55:08;21.70;99.90
23755;DHT22;12057;52.042;6.830;2023-08-17T17:00:09;21.90;99.90
23755;DHT22;12057;52.042;6.830;2023-08-17T17:05:10;22.10;99.90
23755;DHT22;12057;52.042;6.830;2023-08-17T17:10:11;21.90;99.90
23755;DHT22;12057;52.042;6.830;2023-08-17T17:15:12;21.80;99.90
23755;DHT22;12057;52.042;6.830;2023-08-17T17:20:13;21.70;99.90
23755;DHT22;12057;52.042;6.830;2023-08-17T17:25:14;21.40;99.90
23755;DHT22;12057;52.042;6.830;2023-08-17T17:30:15;21.40;99.90
23755;DHT22;12057;52.042;6.830;2023-08-17T17:35:16;21.40;99.90
23755;DHT22;12057;52.042;6.830;2023-08-17T17:40:16;21.00;99.90
23755;DHT22;12057;52.042;6.830;2023-08-17T17:45:20;21.30;99.90
23755;DHT22;12057;52.042;6.830;2023-08-17T17:50:21;21.50;99.90
23755;DHT22;12057;52.042;6.830;2023-08-17T17:55:22;21.10;99.90
23755;DHT22;12057;52.042;6.830;2023-08-17T18:00:23;21.20;99.90
23755;DHT22;12057;52.042;6.830;2023-08-17T18:05:24;20.80;99.90
23755;DHT22;12057;52.042;6.830;2023-08-17T18:10:24;20.80;99.90
23755;DHT22;12057;52.042;6.830;2023-08-17T18:15:25;20.80;99.90
23755;DHT22;12057;52.042;6.830;2023-08-17T18:20:26;21.10;99.90
23755;DHT22;12057;52.042;6.830;2023-08-17T18:25:27;20.80;99.90
23755;DHT22;12057;52.042;6.830;2023-08-17T18:30:30;20.80;99.90
23755;DHT22;12057;52.042;6.830;2023-08-17T18:35:32;20.90;99.90
23755;DHT22;12057;52.042;6.830;2023-08-17T18:40:33;20.60;99.90
23755;DHT22;12057;52.042;6.830;2023-08-17T18:45:33;21.00;99.90
23755;DHT22;12057;52.042;6.830;2023-08-17T18:50:34;21.00;99.90
23755;DHT22;12057;52.042;6.830;2023-08-17T18:55:35;21.20;99.90
23755;DHT22;12057;52.042;6.830;2023-08-17T19:00:37;20.90;99.90
23755;DHT22;12057;52.042;6.830;2023-08-17T19:05:38;20.80;99.90
23755;DHT22;12057;52.042;6.830;2023-08-17T19:10:39;20.70;99.90
23755;DHT22;12057;52.042;6.830;2023-08-17T19:15:40;21.00;99.90
23755;DHT22;12057;52.042;6.830;2023-08-17T19:20:41;20.30;99.90
23755;DHT22;12057;52.042;6.830;2023-08-17T19:25:42;20.30;99.90
23755;DHT22;12057;52.042;6.830;2023-08-17T19:30:43;20.40;99.90
23755;DHT22;12057;52.042;6.830;2023-08-17T19:35:44;20.40;99.90
23755;DHT22;12057;52.042;6.830;2023-08-17T19:40:45;20.50;99.90
23755;DHT22;12057;52.042;6.830;2023-08-17T19:45:47;20.50;99.90
23755;DHT22;12057;52.042;6.830;2023-08-17T19:50:47;20.40;99.90
23755;DHT22;12057;52.042;6.830;2023-08-17T19:55:48;20.20;99.90
23755;DHT22;12057;52.042;6.830;2023-08-17T20:00:52;20.10;99.90
23755;DHT22;12057;52.042;6.830;2023-08-17T20:05:55;20.00;99.90
23755;DHT22;12057;52.042;6.830;2023-08-17T20:10:56;20.30;99.90
23755;DHT22;12057;52.042;6.830;2023-08-17T20:15:57;20.00;99.90
23755;DHT22;12057;52.042;6.830;2023-08-17T20:20:58;20.20;99.90
23755;DHT22;12057;52.042;6.830;2023-08-17T20:25:59;20.40;99.90
23755;DHT22;12057;52.042;6.830;2023-08-17T20:31:00;20.50;99.90
23755;DHT22;12057;52.042;6.830;2023-08-17T20:36:01;20.60;99.90
23755;DHT22;12057;52.042;6.830;2023-08-17T20:41:03;20.60;99.90
23755;DHT22;12057;52.042;6.830;2023-08-17T20:46:04;20.80;99.90
23755;DHT22;12057;52.042;6.830;2023-08-17T20:51:05;20.50;99.90
23755;DHT22;12057;52.042;6.830;2023-08-17T20:56:06;20.40;99.90
23755;DHT22;12057;52.042;6.830;2023-08-17T21:01:07;20.30;99.90
23755;DHT22;12057;52.042;6.830;2023-08-17T21:06:08;20.30;99.90
23755;DHT22;12057;52.042;6.830;2023-08-17T21:11:10;20.40;99.90
23755;DHT22;12057;52.042;6.830;2023-08-17T21:16:11;20.50;99.90
23755;DHT22;12057;52.042;6.830;2023-08-17T21:21:12;20.60;99.90
23755;DHT22;12057;52.042;6.830;2023-08-17T21:26:12;20.60;99.90
23755;DHT22;12057;52.042;6.830;2023-08-17T21:31:13;20.30;99.90
23755;DHT22;12057;52.042;6.830;2023-08-17T21:36:14;20.40;99.90
23755;DHT22;12057;52.042;6.830;2023-08-17T21:41:15;20.60;99.90
23755;DHT22;12057;52.042;6.830;2023-08-17T21:46:15;20.20;99.90
23755;DHT22;12057;52.042;6.830;2023-08-17T21:51:16;20.40;99.90
23755;DHT22;12057;52.042;6.830;2023-08-17T21:56:17;20.40;99.90
23755;DHT22;12057;52.042;6.830;2023-08-17T22:01:18;20.40;99.90
23755;DHT22;12057;52.042;6.830;2023-08-17T22:06:18;20.00;99.90
23755;DHT22;12057;52.042;6.830;2023-08-17T22:11:19;19.90;99.90
23755;DHT22;12057;52.042;6.830;2023-08-17T22:16:20;20.00;99.90
23755;DHT22;12057;52.042;6.830;2023-08-17T22:21:21;20.00;99.90
23755;DHT22;12057;52.042;6.830;2023-08-17T22:26:22;20.20;99.90
23755;DHT22;12057;52.042;6.830;2023-08-17T22:31:22;20.20;99.90
23755;DHT22;12057;52.042;6.830;2023-08-17T22:36:23;20.10;99.90
23755;DHT22;12057;52.042;6.830;2023-08-17T22:41:24;20.20;99.90
23755;DHT22;12057;52.042;6.830;2023-08-17T22:46:25;20.30;99.90
23755;DHT22;12057;52.042;6.830;2023-08-17T22:51:26;20.30;99.90
23755;DHT22;12057;52.042;6.830;2023-08-17T22:56:27;20.00;99.90
23755;DHT22;12057;52.042;6.830;2023-08-17T23:01:27;19.90;99.90
23755;DHT22;12057;52.042;6.830;2023-08-17T23:06:28;19.80;99.90
23755;DHT22;12057;52.042;6.830;2023-08-17T23:11:29;19.90;99.90
23755;DHT22;12057;52.042;6.830;2023-08-17T23:16:30;19.80;99.90
23755;DHT22;12057;52.042;6.830;2023-08-17T23:21:31;19.80;99.90
23755;DHT22;12057;52.042;6.830;2023-08-17T23:26:32;19.80;99.90
23755;DHT22;12057;52.042;6.830;2023-08-17T23:31:32;20.10;99.90
23755;DHT22;12057;52.042;6.830;2023-08-17T23:36:33;20.00;99.90
23755;DHT22;12057;52.042;6.830;2023-08-17T23:41:34;19.90;99.90
23755;DHT22;12057;52.042;6.830;2023-08-17T23:46:35;19.90;99.90
23755;DHT22;12057;52.042;6.830;2023-08-17T23:51:36;20.10;99.90
23755;DHT22;12057;52.042;6.830;2023-08-17T23:56:37;20.20;99.90
